Time;durP1;ratioP1;P1;durP2;ratioP2;P2;SDS_P1;SDS_P2;PMS_P1;PMS_P2;Temp;Humidity;BMP_temperature;BMP_pressure;BME280_temperature;BME280_humidity;BME280_pressure;Samples;Min_cycle;Max_cycle;Signal;HPM_P1;HPM_P2
2023/09/21 00:00:36;;;;;;;;;;;23.00;68.00;;;23.18;43.80;97741.16;5032188;27;108974;-87
2023/09/21 00:03:06;;;;;;;;;;;23.00;68.10;;;23.16;43.64;97733.13;5024504;27;108681;-88
2023/09/21 00:05:33;;;;;;;;;;;22.90;68.00;;;23.12;43.71;97732.38;5036247;27;124204;-88
2023/09/21 00:07:59;;;;;;;;;;;22.90;68.00;;;23.09;43.87;97727.59;5034976;27;124629;-87
2023/09/21 00:10:27;;;;;;;;;;;22.90;68.10;;;23.07;43.98;97732.84;5038209;27;108553;-88
2023/09/21 00:12:56;;;;;;;;;;;22.80;68.10;;;23.05;43.86;97727.66;5069172;27;107835;-89
2023/09/21 00:15:29;;;;;;;;;;;22.80;68.20;;;23.02;44.06;97733.31;5023554;27;123461;-89
2023/09/21 00:18:04;;;;;;;;;;;22.80;68.50;;;22.98;44.71;97727.72;5013390;28;124268;-88
2023/09/21 00:20:42;;;;;;;;;;;22.70;68.70;;;22.96;44.58;97729.34;5041119;27;109481;-88
2023/09/21 00:23:09;;;;;;;;;;;22.70;69.00;;;22.92;44.74;97724.53;5028693;27;108953;-88
2023/09/21 00:25:38;;;;;;;;;;;22.70;69.20;;;22.91;44.54;97725.75;5026574;27;124940;-88
2023/09/21 00:28:11;;;;;;;;;;;22.70;69.30;;;22.88;44.28;97718.16;5029496;27;124524;-88
2023/09/21 00:30:43;;;;;;;;;;;22.70;69.30;;;22.84;44.50;97714.59;5026924;27;108592;-89
2023/09/21 00:33:11;;;;;;;;;;;22.60;69.20;;;22.78;44.39;97716.25;5053473;27;108629;-88
2023/09/21 00:35:39;;;;;;;;;;;22.60;69.10;;;22.75;44.74;97705.03;5028487;27;124227;-90
2023/09/21 00:38:08;;;;;;;;;;;22.60;69.30;;;22.71;44.67;97703.06;5029312;27;122920;-88
2023/09/21 00:40:38;;;;;;;;;;;22.50;69.30;;;22.71;44.57;97699.47;5029156;28;110276;-88
2023/09/21 00:43:10;;;;;;;;;;;22.50;69.40;;;22.72;44.52;97687.75;5029371;27;110000;-88
2023/09/21 00:45:42;;;;;;;;;;;22.50;69.60;;;22.72;44.57;97689.78;5062168;27;124245;-88
2023/09/21 00:48:12;;;;;;;;;;;22.50;69.70;;;22.72;44.90;97696.22;5029534;27;124231;-89
2023/09/21 00:50:41;;;;;;;;;;;22.50;69.90;;;22.70;44.86;97701.47;5017690;28;108708;-89
2023/09/21 00:53:13;;;;;;;;;;;22.50;70.10;;;22.68;44.93;97689.03;5041253;27;109211;-89
2023/09/21 00:55:40;;;;;;;;;;;22.50;70.20;;;22.66;45.06;97695.09;5032352;27;123905;-88
2023/09/21 00:58:07;;;;;;;;;;;22.40;70.30;;;22.65;45.23;97684.25;5063162;27;124939;-88
2023/09/21 01:00:36;;;;;;;;;;;22.40;70.40;;;22.64;45.29;97696.72;5029677;27;109366;-89
2023/09/21 01:03:12;;;;;;;;;;;22.40;70.70;;;22.62;45.16;97685.06;5030660;27;108926;-88
2023/09/21 01:05:39;;;;;;;;;;;22.40;70.70;;;22.60;45.29;97682.69;5020326;27;123672;-89
2023/09/21 01:08:11;;;;;;;;;;;22.40;70.70;;;22.55;45.27;97682.38;5030817;27;123726;-89
2023/09/21 01:10:41;;;;;;;;;;;22.40;70.80;;;22.53;45.24;97684.78;5068058;27;109831;-90
2023/09/21 01:13:14;;;;;;;;;;;22.30;70.70;;;22.52;45.22;97680.38;5061499;27;109312;-91
2023/09/21 01:16:01;;;;;;;;;;;22.30;70.90;;;22.51;45.25;97676.75;5035957;27;123278;-89
2023/09/21 01:18:27;;;;;;;;;;;22.30;70.90;;;22.52;45.56;97677.56;5032259;27;123335;-89
2023/09/21 01:21:00;;;;;;;;;;;22.30;71.00;;;22.49;45.43;97671.56;5076269;27;109299;-89
2023/09/21 01:23:45;;;;;;;;;;;22.30;71.10;;;22.49;45.54;97670.78;5054771;27;107787;-90
2023/09/21 01:26:16;;;;;;;;;;;22.30;71.30;;;22.45;45.48;97673.59;5039009;27;124254;-89
2023/09/21 01:28:50;;;;;;;;;;;22.20;71.20;;;22.42;45.27;97668.81;5059887;27;124131;-90
2023/09/21 01:31:18;;;;;;;;;;;22.20;71.30;;;22.38;45.33;97672.88;5039363;27;110303;-90
2023/09/21 01:33:45;;;;;;;;;;;22.20;71.10;;;22.36;45.22;97670.50;5022904;27;108923;-90
2023/09/21 01:36:15;;;;;;;;;;;22.10;71.10;;;22.33;45.47;97664.94;5025800;27;124192;-90
2023/09/21 01:38:45;;;;;;;;;;;22.10;71.50;;;22.26;46.28;97668.59;5031982;27;123946;-90
2023/09/21 01:41:13;;;;;;;;;;;22.00;72.10;;;22.21;46.53;97660.63;5033116;28;108453;-90
2023/09/21 01:43:39;;;;;;;;;;;22.00;72.30;;;22.18;46.54;97655.78;5034733;27;108172;-89
2023/09/21 01:46:05;;;;;;;;;;;22.00;72.50;;;22.18;46.47;97652.97;5033948;27;124797;-89
2023/09/21 01:48:33;;;;;;;;;;;22.00;72.90;;;22.18;46.82;97655.78;5058736;27;123856;-90
2023/09/21 01:51:00;;;;;;;;;;;22.00;73.20;;;22.16;47.23;97649.78;5066859;27;109441;-89
2023/09/21 01:53:26;;;;;;;;;;;21.90;73.50;;;22.09;47.27;97655.50;5049065;27;107812;-89
2023/09/21 01:55:53;;;;;;;;;;;21.90;74.30;;;21.97;47.89;97651.19;5076604;27;124546;-90
2023/09/21 01:58:25;;;;;;;;;;;21.80;74.70;;;21.83;48.32;97643.69;5032512;27;124268;-90
2023/09/21 02:00:53;;;;;;;;;;;21.70;75.50;;;21.70;48.79;97656.66;5036301;27;109249;-90
2023/09/21 02:03:28;;;;;;;;;;;21.60;75.70;;;21.59;48.94;97643.47;5046832;27;108150;-90
2023/09/21 02:05:57;;;;;;;;;;;21.50;76.20;;;21.51;49.02;97643.97;5065485;27;122692;-90
2023/09/21 02:08:23;;;;;;;;;;;20.00;75.00;;;21.48;48.96;97650.41;5045755;27;123789;-90
2023/09/21 02:10:50;;;;;;;;;;;21.40;76.40;;;21.40;49.62;97641.25;5042212;27;108617;-90
2023/09/21 02:13:17;;;;;;;;;;;21.30;77.20;;;21.34;49.92;97631.63;5047091;27;109167;-91
2023/09/21 02:15:44;;;;;;;;;;;21.30;77.40;;;21.25;50.09;97631.28;5050707;28;122878;-89
2023/09/21 02:18:12;;;;;;;;;;;21.20;78.60;;;21.15;50.34;97625.34;5036448;27;123099;-90
2023/09/21 02:20:50;;;;;;;;;;;21.10;78.70;;;21.09;50.45;97612.94;5031379;27;110290;-90
2023/09/21 02:23:20;;;;;;;;;;;21.10;79.60;;;21.00;50.94;97609.78;5033023;27;108950;-89
2023/09/21 02:25:46;;;;;;;;;;;20.90;80.00;;;20.91;51.13;97615.06;5022637;28;124193;-91
2023/09/21 02:28:13;;;;;;;;;;;20.80;79.90;;;20.89;51.35;97614.69;5028334;27;123924;-90
2023/09/21 02:30:44;;;;;;;;;;;20.80;80.60;;;20.77;52.37;97607.53;5032935;28;109196;-89
2023/09/21 02:33:12;;;;;;;;;;;20.70;82.00;;;20.68;51.98;97607.16;5029905;27;108765;-90
2023/09/21 02:35:41;;;;;;;;;;;20.60;82.30;;;20.67;52.04;97602.78;5034278;27;123419;-89
2023/09/21 02:38:15;;;;;;;;;;;20.50;82.20;;;20.70;52.00;97599.94;5035218;27;124163;-90
2023/09/21 02:40:42;;;;;;;;;;;20.50;82.70;;;20.71;52.16;97597.94;5065626;27;108406;-90
2023/09/21 02:43:13;;;;;;;;;;;20.50;83.20;;;20.71;51.73;97600.72;5033477;28;108887;-91
2023/09/21 02:45:39;;;;;;;;;;;20.50;83.10;;;20.74;51.75;97600.72;5074016;27;124282;-90
2023/09/21 02:48:06;;;;;;;;;;;20.50;83.80;;;20.79;51.72;97595.88;5045452;27;123346;-90
2023/09/21 02:50:34;;;;;;;;;;;20.60;83.40;;;20.80;52.02;97594.69;5032675;27;109510;-88
2023/09/21 02:53:08;;;;;;;;;;;20.50;83.60;;;20.79;52.03;97593.06;5038116;27;108951;-91
2023/09/21 02:55:37;;;;;;;;;;;20.50;84.00;;;20.77;51.83;97585.06;5064061;27;125935;-89
2023/09/21 02:58:05;;;;;;;;;;;20.50;84.20;;;20.79;52.63;97593.06;5069592;27;123031;-90
2023/09/21 03:00:53;;;;;;;;;;;20.50;84.80;;;20.74;52.26;97585.91;5044936;27;109441;-90
2023/09/21 03:03:22;;;;;;;;;;;20.50;84.90;;;20.68;52.29;97593.94;5034158;27;108663;-89
2023/09/21 03:05:49;;;;;;;;;;;20.40;85.10;;;20.63;52.70;97597.19;5034782;27;124754;-89
2023/09/21 03:08:16;;;;;;;;;;;20.40;85.70;;;20.56;53.39;97596.44;5038112;27;124067;-89
2023/09/21 03:10:47;;;;;;;;;;;20.30;86.50;;;20.47;53.42;97594.84;5039013;27;110268;-90
2023/09/21 03:13:18;;;;;;;;;;;20.30;86.80;;;20.45;53.44;97597.25;5032034;27;109770;-90
2023/09/21 03:15:57;;;;;;;;;;;20.30;86.50;;;20.42;53.69;97600.06;5031173;27;124485;-92
2023/09/21 03:18:24;;;;;;;;;;;20.30;87.00;;;20.42;53.55;97605.69;5043791;27;124595;-90
2023/09/21 03:20:54;;;;;;;;;;;20.20;86.90;;;20.39;53.29;97596.06;5016979;28;108649;-90
2023/09/21 03:23:22;;;;;;;;;;;20.20;86.90;;;20.41;53.17;97595.66;5018354;27;108812;-91
2023/09/21 03:25:51;;;;;;;;;;;20.20;86.90;;;20.45;53.17;97585.22;5010389;28;124229;-90
2023/09/21 03:28:19;;;;;;;;;;;20.30;87.10;;;20.51;53.26;97580.78;5027031;27;124017;-90
2023/09/21 03:30:52;;;;;;;;;;;20.30;87.10;;;20.57;52.82;97573.53;5017244;28;108966;-90
2023/09/21 03:33:20;;;;;;;;;;;20.30;87.10;;;20.62;52.88;97575.13;5019236;27;109302;-89
2023/09/21 03:35:47;;;;;;;;;;;20.30;87.10;;;20.66;52.59;97573.91;5078083;27;124849;-90
2023/09/21 03:38:13;;;;;;;;;;;20.40;87.10;;;20.70;52.33;97574.69;5029062;27;123549;-90
2023/09/21 03:40:41;;;;;;;;;;;20.40;87.10;;;20.74;52.46;97581.09;5031066;28;109402;-91
2023/09/21 03:43:12;;;;;;;;;;;20.40;87.30;;;20.78;52.68;97577.44;5030098;27;108675;-90
2023/09/21 03:45:39;;;;;;;;;;;20.50;87.50;;;20.76;52.77;97582.66;5032197;27;122919;-91
2023/09/21 03:48:10;;;;;;;;;;;20.40;87.60;;;20.72;52.96;97577.09;5029789;27;123986;-90
2023/09/21 03:50:38;;;;;;;;;;;20.50;88.00;;;20.70;52.81;97580.28;5048643;27;109523;-91
2023/09/21 03:53:08;;;;;;;;;;;20.40;87.80;;;20.71;52.78;97570.69;5031559;27;108650;-91
2023/09/21 03:55:38;;;;;;;;;;;20.50;88.00;;;20.74;53.14;97567.03;5029861;27;124641;-91
2023/09/21 03:58:10;;;;;;;;;;;20.50;87.90;;;20.77;52.85;97567.41;5029941;27;124030;-90
2023/09/21 04:00:36;;;;;;;;;;;20.50;88.10;;;20.79;52.94;97559.38;5031047;27;109515;-91
2023/09/21 04:03:06;;;;;;;;;;;20.50;88.00;;;20.84;52.64;97561.75;5030818;27;109924;-90
2023/09/21 04:05:36;;;;;;;;;;;20.50;88.00;;;20.86;52.98;97564.97;5031782;27;124386;-91
2023/09/21 04:08:08;;;;;;;;;;;20.50;87.90;;;20.87;52.98;97555.31;5016035;27;123158;-90
2023/09/21 04:10:36;;;;;;;;;;;20.60;88.00;;;20.88;52.89;97557.72;5030244;28;109261;-89
2023/09/21 04:13:02;;;;;;;;;;;20.60;87.90;;;20.89;52.63;97561.31;5030588;27;108856;-90
2023/09/21 04:15:29;;;;;;;;;;;20.60;88.00;;;20.92;52.96;97557.69;5033897;27;123699;-89
2023/09/21 04:17:59;;;;;;;;;;;20.60;88.00;;;20.92;52.57;97557.69;5030859;27;123899;-90
2023/09/21 04:20:25;;;;;;;;;;;20.60;88.20;;;20.91;52.53;97553.28;5063286;27;109406;-90
2023/09/21 04:22:55;;;;;;;;;;;20.60;88.20;;;20.92;52.60;97558.47;5049302;27;108752;-89
2023/09/21 04:25:21;;;;;;;;;;;20.60;88.10;;;20.95;53.02;97546.44;5016816;28;124919;-91
2023/09/21 04:27:49;;;;;;;;;;;20.60;88.20;;;21.00;52.45;97541.59;5032508;27;123863;-90
2023/09/21 04:30:17;;;;;;;;;;;20.70;88.40;;;21.03;52.62;97535.94;5029555;27;109915;-90
2023/09/21 04:32:47;;;;;;;;;;;20.70;88.70;;;21.05;53.00;97539.13;5029794;27;108553;-89
2023/09/21 04:35:15;;;;;;;;;;;20.70;88.70;;;21.06;52.99;97540.72;5047543;27;123558;-90
2023/09/21 04:37:51;;;;;;;;;;;20.70;88.70;;;21.07;52.86;97530.31;5015354;28;123256;-90
2023/09/21 04:40:19;;;;;;;;;;;20.70;88.70;;;21.04;52.42;97537.56;5057922;27;110068;-90
2023/09/21 04:42:47;;;;;;;;;;;20.70;88.70;;;21.05;52.83;97543.97;5022159;27;108777;-90
2023/09/21 04:45:18;;;;;;;;;;;20.70;88.60;;;21.04;53.00;97545.19;5010400;27;122831;-90
2023/09/21 04:47:45;;;;;;;;;;;20.70;88.80;;;21.00;53.06;97536.78;5031343;27;124000;-89
2023/09/21 04:50:13;;;;;;;;;;;20.70;88.90;;;20.95;53.15;97534.41;5032397;27;110717;-91
2023/09/21 04:52:39;;;;;;;;;;;20.60;89.00;;;20.91;53.39;97534.44;5032844;27;109503;-90
2023/09/21 04:55:08;;;;;;;;;;;20.60;89.60;;;20.86;53.36;97536.88;5033885;27;124850;-90
2023/09/21 04:57:37;;;;;;;;;;;20.60;89.80;;;20.84;53.82;97530.88;5027839;27;124006;-88
2023/09/21 05:00:07;;;;;;;;;;;20.60;89.80;;;20.84;53.32;97525.25;5031730;27;108687;-91
2023/09/21 05:02:33;;;;;;;;;;;20.60;89.90;;;20.89;53.76;97525.63;5078211;27;109042;-90
2023/09/21 05:05:00;;;;;;;;;;;20.60;89.90;;;20.94;53.83;97521.59;5034655;27;124290;-88
2023/09/21 05:07:27;;;;;;;;;;;20.60;90.00;;;20.99;53.19;97535.19;5026180;27;125791;-89
2023/09/21 05:09:53;;;;;;;;;;;20.60;89.90;;;21.05;53.18;97527.13;5034755;27;108710;-89
2023/09/21 05:12:21;;;;;;;;;;;20.70;90.00;;;21.07;53.39;97527.50;5037796;27;109220;-90
2023/09/21 05:14:50;;;;;;;;;;;20.70;90.00;;;21.04;53.15;97525.53;5038135;27;124819;-90
2023/09/21 05:17:17;;;;;;;;;;;20.70;90.10;;;21.01;53.49;97520.72;5057752;27;122955;-90
2023/09/21 05:19:44;;;;;;;;;;;20.70;90.10;;;21.02;53.14;97514.69;5025335;27;108756;-89
2023/09/21 05:22:10;;;;;;;;;;;20.70;90.00;;;21.03;53.61;97516.28;5067343;27;108596;-90
2023/09/21 05:24:37;;;;;;;;;;;20.70;90.00;;;21.02;53.51;97517.50;5047811;27;124135;-90
2023/09/21 05:27:06;;;;;;;;;;;20.70;90.20;;;20.98;53.94;97513.91;5018654;28;123337;-88
2023/09/21 05:29:32;;;;;;;;;;;20.70;90.50;;;20.91;54.12;97511.19;5065846;27;109575;-90
2023/09/21 05:32:00;;;;;;;;;;;20.60;90.50;;;20.85;54.41;97518.47;5043747;27;109310;-89
2023/09/21 05:34:28;;;;;;;;;;;20.50;90.70;;;20.74;54.52;97524.16;5073757;27;124897;-89
2023/09/21 05:36:56;;;;;;;;;;;20.40;90.80;;;20.69;55.08;97519.75;5056031;27;123209;-89
2023/09/21 05:39:23;;;;;;;;;;;20.40;90.80;;;20.64;55.22;97523.00;5028877;27;110553;-90
2023/09/21 05:41:49;;;;;;;;;;;20.40;91.10;;;20.56;55.42;97521.44;5030348;27;108821;-91
2023/09/21 05:44:21;;;;;;;;;;;20.30;91.20;;;20.52;55.56;97518.66;5033849;27;124112;-91
2023/09/21 05:46:49;;;;;;;;;;;20.30;91.50;;;20.57;55.06;97511.81;5032344;28;123337;-91
2023/09/21 05:49:24;;;;;;;;;;;20.30;91.10;;;20.60;55.50;97504.56;5017382;27;108329;-89
2023/09/21 05:51:53;;;;;;;;;;;20.30;91.10;;;20.65;55.34;97502.13;5039804;27;109393;-89
2023/09/21 05:54:25;;;;;;;;;;;20.40;91.20;;;20.68;54.61;97498.50;5073881;27;124113;-89
2023/09/21 05:56:55;;;;;;;;;;;20.40;91.10;;;20.72;54.82;97496.47;5038260;27;124099;-89
2023/09/21 05:59:24;;;;;;;;;;;20.40;91.10;;;20.77;54.90;97500.03;5020284;28;108890;-90
2023/09/21 06:01:50;;;;;;;;;;;20.40;91.10;;;20.78;54.78;97493.22;5037634;27;109168;-90
2023/09/21 06:04:18;;;;;;;;;;;20.40;91.10;;;20.80;54.60;97504.84;5021712;27;124120;-91
2023/09/21 06:06:44;;;;;;;;;;;20.40;91.20;;;20.78;54.69;97505.25;5028134;27;124080;-90
2023/09/21 06:09:12;;;;;;;;;;;20.50;91.10;;;20.80;54.79;97511.25;5031750;27;109605;-89
2023/09/21 06:11:39;;;;;;;;;;;20.50;91.20;;;20.79;54.67;97500.44;5033951;27;108254;-91
2023/09/21 06:14:05;;;;;;;;;;;20.50;91.10;;;20.79;54.69;97498.41;5042652;27;123830;-91
2023/09/21 06:16:32;;;;;;;;;;;20.50;91.10;;;20.79;54.25;97497.63;5044987;27;123635;-89
2023/09/21 06:19:00;;;;;;;;;;;20.50;91.00;;;20.80;54.50;97497.22;5037707;27;109516;-90
2023/09/21 06:21:27;;;;;;;;;;;20.50;91.00;;;20.81;54.23;97495.22;5047113;27;109029;-91
2023/09/21 06:23:54;;;;;;;;;;;20.50;91.10;;;20.79;54.17;97498.41;5034873;27;124204;-91
2023/09/21 06:26:22;;;;;;;;;;;20.50;91.00;;;20.81;54.55;97500.81;5030495;27;124653;-91
2023/09/21 06:28:49;;;;;;;;;;;20.50;91.00;;;20.84;54.46;97494.38;5031664;27;110210;-90
2023/09/21 06:31:18;;;;;;;;;;;20.50;91.00;;;20.87;54.55;97488.72;5038727;27;109869;-85
2023/09/21 06:33:46;;;;;;;;;;;20.50;91.00;;;20.92;54.15;97496.72;5042223;27;124140;-90
2023/09/21 06:36:20;;;;;;;;;;;20.60;91.10;;;20.96;54.85;97489.06;5042646;27;123101;-91
2023/09/21 06:38:52;;;;;;;;;;;20.60;91.30;;;21.00;54.76;97488.25;5035217;27;109627;-92
2023/09/21 06:41:18;;;;;;;;;;;20.60;91.30;;;21.04;54.41;97491.81;5025180;27;109428;-91
2023/09/21 06:43:45;;;;;;;;;;;20.60;91.30;;;21.05;54.57;97491.41;5022824;27;124727;-89
2023/09/21 06:46:12;;;;;;;;;;;20.60;91.30;;;21.06;54.06;97490.16;5022399;27;122271;-92
2023/09/21 06:48:41;;;;;;;;;;;20.70;91.30;;;21.09;54.31;97494.16;5033107;27;108396;-91
2023/09/21 06:51:08;;;;;;;;;;;20.70;91.30;;;21.09;54.03;97489.38;5070616;27;108524;-93
2023/09/21 06:53:37;;;;;;;;;;;20.70;91.30;;;21.08;54.04;97499.00;5063842;27;124120;-91
2023/09/21 06:56:04;;;;;;;;;;;20.70;91.20;;;21.08;54.39;97493.38;5017711;27;122214;-92
2023/09/21 06:58:33;;;;;;;;;;;20.80;91.20;;;21.12;54.42;97491.34;5017758;28;108312;-89
2023/09/21 07:00:59;;;;;;;;;;;20.80;91.10;;;21.17;53.81;97493.72;5038966;27;109155;-90
2023/09/21 07:03:28;;;;;;;;;;;20.80;91.10;;;21.22;54.03;97489.63;5015403;28;123121;-96
2023/09/21 07:05:54;;;;;;;;;;;20.90;91.10;;;21.26;53.71;97486.81;5029633;27;122131;-93
2023/09/21 07:08:21;;;;;;;;;;;20.90;91.10;;;21.33;53.87;97495.16;5015100;28;107342;-89
2023/09/21 07:10:49;;;;;;;;;;;21.00;91.10;;;21.37;53.75;97493.13;5031086;27;108750;-91
2023/09/21 07:13:19;;;;;;;;;;;21.00;91.00;;;21.42;53.39;97489.88;5022275;27;123657;-89
2023/09/21 07:15:48;;;;;;;;;;;21.10;91.00;;;21.49;53.15;97483.38;5059498;27;124465;-88
2023/09/21 07:18:17;;;;;;;;;;;21.10;90.90;;;21.54;53.18;97480.13;5049842;27;109553;-87
2023/09/21 07:20:44;;;;;;;;;;;21.10;90.90;;;21.60;53.32;97484.88;5058383;27;109639;-88
2023/09/21 07:23:11;;;;;;;;;;;21.20;90.90;;;21.65;53.33;97492.03;5042504;27;123249;-90
2023/09/21 07:25:38;;;;;;;;;;;21.20;90.90;;;21.71;52.77;97483.94;5035152;28;124926;-89
2023/09/21 07:28:04;;;;;;;;;;;21.30;90.90;;;21.78;53.07;97486.66;5032128;27;108170;-89
2023/09/21 07:30:32;;;;;;;;;;;21.30;90.80;;;21.85;52.46;97472.53;5015011;28;106809;-88
2023/09/21 07:33:00;;;;;;;;;;;21.40;90.80;;;21.93;52.77;97473.25;5024797;27;124483;-90
2023/09/21 07:35:27;;;;;;;;;;;21.40;90.70;;;21.99;52.48;97477.97;5057574;27;121940;-90
2023/09/21 07:37:53;;;;;;;;;;;21.50;90.70;;;22.04;52.17;97473.91;5067190;27;108342;-87
2023/09/21 07:40:21;;;;;;;;;;;21.50;90.60;;;22.05;52.06;97470.66;5057893;27;108329;-88
2023/09/21 07:42:53;;;;;;;;;;;21.50;90.50;;;22.11;52.16;97468.19;5020878;28;122772;-89
2023/09/21 07:45:22;;;;;;;;;;;21.60;90.80;;;22.17;51.82;97465.72;5026790;27;122899;-85
2023/09/21 07:47:49;;;;;;;;;;;21.70;90.40;;;22.20;51.65;97464.88;5025592;27;108791;-88
2023/09/21 07:50:18;;;;;;;;;;;21.70;90.40;;;22.23;51.75;97458.41;5032999;27;109458;-88
2023/09/21 07:52:45;;;;;;;;;;;21.70;90.30;;;22.24;51.80;97454.38;5031731;27;124444;-87
2023/09/21 07:55:11;;;;;;;;;;;21.80;90.30;;;22.26;51.85;97440.69;5034399;27;124039;-85
2023/09/21 07:57:39;;;;;;;;;;;21.80;90.30;;;22.31;51.86;97447.84;5018837;27;107588;-85
2023/09/21 08:00:09;;;;;;;;;;;21.80;90.30;;;22.33;51.91;97440.59;5034823;28;108509;-85
2023/09/21 08:02:36;;;;;;;;;;;21.80;90.30;;;22.39;51.81;97433.25;5041770;27;123518;-88
2023/09/21 08:05:04;;;;;;;;;;;21.90;90.30;;;22.46;51.46;97432.31;5032560;27;124033;-89
2023/09/21 08:07:33;;;;;;;;;;;22.00;90.30;;;22.54;51.24;97427.38;5033804;27;110737;-86
2023/09/21 08:10:06;;;;;;;;;;;22.00;90.20;;;22.60;51.38;97414.44;5066828;27;109553;-86
2023/09/21 08:12:36;;;;;;;;;;;22.10;90.20;;;22.67;51.14;97408.69;5030524;28;124263;-93
2023/09/21 08:15:06;;;;;;;;;;;22.00;90.10;;;22.71;50.95;97404.59;5015365;27;123846;-88
2023/09/21 08:17:33;;;;;;;;;;;22.10;90.10;;;22.78;50.69;97414.91;5032181;27;109359;-87
2023/09/21 08:20:00;;;;;;;;;;;22.20;90.00;;;22.87;50.84;97414.41;5029497;27;107755;-90
2023/09/21 08:22:28;;;;;;;;;;;22.30;90.00;;;22.98;50.38;97408.59;5028051;28;124490;-88
2023/09/21 08:24:55;;;;;;;;;;;22.40;89.80;;;23.02;50.26;97412.94;5016906;28;123824;-85
2023/09/21 08:27:29;;;;;;;;;;;22.40;89.50;;;23.04;50.14;97410.47;5018044;28;108777;-87
2023/09/21 08:29:57;;;;;;;;;;;22.50;89.40;;;23.05;50.09;97414.91;5014113;28;106840;-89
2023/09/21 08:32:25;;;;;;;;;;;22.50;89.00;;;23.12;50.19;97413.97;5054005;27;123467;-88
2023/09/21 08:34:57;;;;;;;;;;;22.60;89.00;;;23.21;50.10;97413.41;5017986;28;124399;-87
2023/09/21 08:37:24;;;;;;;;;;;22.70;89.00;;;23.30;49.67;97400.34;5020602;28;109716;-86
2023/09/21 08:39:50;;;;;;;;;;;22.80;88.60;;;23.36;49.39;97404.25;5018551;28;108630;-86
2023/09/21 08:42:16;;;;;;;;;;;22.80;88.30;;;23.35;49.08;97411.13;5035082;28;122533;-86
2023/09/21 08:44:43;;;;;;;;;;;22.80;88.10;;;23.42;49.65;97400.94;5021313;28;123738;-86
2023/09/21 08:47:13;;;;;;;;;;;22.90;88.30;;;23.51;49.45;97401.97;5048385;27;109929;-87
2023/09/21 08:49:47;;;;;;;;;;;23.00;88.30;;;23.64;49.17;97402.06;5044308;27;107531;-88
2023/09/21 08:52:14;;;;;;;;;;;23.10;88.10;;;23.75;48.83;97404.69;5040803;27;124373;-88
2023/09/21 08:54:42;;;;;;;;;;;23.20;87.90;;;23.83;48.73;97399.72;5040821;27;123151;-88
2023/09/21 08:57:12;;;;;;;;;;;23.20;87.60;;;23.94;48.60;97403.91;5033999;27;110332;-85
2023/09/21 08:59:41;;;;;;;;;;;23.30;87.60;;;24.05;48.33;97409.31;5033427;27;109930;-88
2023/09/21 09:02:17;;;;;;;;;;;23.50;87.40;;;24.16;48.24;97401.41;5104037;27;124298;-90
2023/09/21 09:04:43;;;;;;;;;;;23.60;87.10;;;24.31;48.09;97404.69;5072368;27;123973;-89
2023/09/21 09:07:13;;;;;;;;;;;23.70;86.80;;;24.43;47.58;97404.00;5019750;27;106877;-89
2023/09/21 09:09:39;;;;;;;;;;;23.80;86.40;;;24.54;47.13;97409.41;5022526;28;108003;-92
2023/09/21 09:12:21;;;;;;;;;;;23.90;85.80;;;24.62;47.01;97399.53;5049918;27;123711;-91
2023/09/21 09:14:52;;;;;;;;;;;24.00;85.40;;;24.74;46.61;97402.88;5051655;27;124303;-87
2023/09/21 09:17:18;;;;;;;;;;;24.10;85.00;;;24.83;46.34;97391.78;5039019;27;108352;-87
2023/09/21 09:19:48;;;;;;;;;;;24.20;84.60;;;24.95;45.87;97391.03;5043987;27;107971;-89
2023/09/21 09:22:17;;;;;;;;;;;24.30;84.30;;;25.03;45.66;97375.47;5060007;27;123682;-89
2023/09/21 09:24:50;;;;;;;;;;;24.20;83.90;;;25.12;45.58;97372.03;5034891;27;124717;-88
2023/09/21 09:27:20;;;;;;;;;;;24.50;83.40;;;25.21;45.04;97365.78;5040367;27;110495;-88
2023/09/21 09:29:56;;;;;;;;;;;24.60;83.30;;;25.29;45.15;97359.47;5009200;27;106973;-88
2023/09/21 09:32:23;;;;;;;;;;;24.70;82.90;;;25.37;44.88;97353.63;5022219;27;124294;-88
2023/09/21 09:34:55;;;;;;;;;;;24.80;82.60;;;25.46;44.77;97343.22;5029082;27;123429;-89
2023/09/21 09:37:22;;;;;;;;;;;24.90;82.30;;;25.57;44.55;97352.19;5029835;28;108586;-88
2023/09/21 09:39:48;;;;;;;;;;;25.00;81.80;;;25.66;43.86;97351.56;5047260;27;108282;-88
2023/09/21 09:42:15;;;;;;;;;;;25.10;81.20;;;25.73;43.30;97356.19;5068280;27;124216;-89
2023/09/21 09:44:44;;;;;;;;;;;25.10;80.50;;;25.79;43.16;97345.91;5041667;27;123762;-88
2023/09/21 09:47:12;;;;;;;;;;;25.20;80.10;;;25.88;42.97;97339.63;5082493;27;110253;-90
2023/09/21 09:49:40;;;;;;;;;;;25.30;79.70;;;25.95;42.49;97345.88;5069400;27;109538;-88
2023/09/21 09:52:09;;;;;;;;;;;25.40;78.90;;;26.03;42.48;97345.63;5041069;27;124458;-88
2023/09/21 09:54:39;;;;;;;;;;;25.40;78.20;;;26.08;41.58;97339.41;5072826;27;123052;-89
2023/09/21 09:57:14;;;;;;;;;;;25.50;76.90;;;26.14;41.33;97332.72;5022329;27;109520;-88
2023/09/21 09:59:42;;;;;;;;;;;25.60;77.10;;;26.23;41.50;97329.22;5069649;27;108605;-88
2023/09/21 10:02:18;;;;;;;;;;;25.70;76.80;;;26.30;40.90;97323.28;5050970;27;124182;-89
2023/09/21 10:04:49;;;;;;;;;;;25.70;76.30;;;26.36;40.79;97318.66;5040795;27;123131;-89
2023/09/21 10:07:17;;;;;;;;;;;25.80;75.80;;;26.42;40.75;97316.84;5075919;27;109422;-89
2023/09/21 10:09:46;;;;;;;;;;;25.90;75.60;;;26.49;40.69;97298.00;5046607;27;107186;-89
2023/09/21 10:12:13;;;;;;;;;;;26.00;75.00;;;26.54;40.41;97303.13;5039994;27;124450;-89
2023/09/21 10:14:43;;;;;;;;;;;26.00;74.70;;;26.59;40.18;97305.41;5052141;27;122987;-89
2023/09/21 10:17:10;;;;;;;;;;;26.10;74.20;;;26.62;40.27;97293.16;5031862;27;108760;-89
2023/09/21 10:19:39;;;;;;;;;;;26.10;74.00;;;26.65;40.22;97289.38;5040540;27;107224;-89
2023/09/21 10:22:25;;;;;;;;;;;26.20;73.70;;;26.71;40.21;97292.47;5034034;27;124289;-89
2023/09/21 10:24:55;;;;;;;;;;;26.20;73.70;;;26.78;40.41;97295.81;5040522;27;123534;-89
2023/09/21 10:27:24;;;;;;;;;;;26.30;73.90;;;26.85;40.63;97292.75;5077224;27;108689;-89
2023/09/21 10:29:54;;;;;;;;;;;26.40;74.10;;;26.88;40.50;97283.31;5079573;27;108765;-90
2023/09/21 10:32:23;;;;;;;;;;;26.40;74.30;;;26.94;40.48;97280.69;5046233;27;123434;-92
2023/09/21 10:34:52;;;;;;;;;;;26.40;74.60;;;27.02;40.63;97282.00;5055869;27;123066;-93
2023/09/21 10:37:28;;;;;;;;;;;26.50;74.60;;;27.09;39.64;97272.47;5043993;27;109803;-90
2023/09/21 10:39:58;;;;;;;;;;;26.60;73.00;;;27.12;39.02;97265.88;5040730;27;109669;-90
2023/09/21 10:42:36;;;;;;;;;;;26.60;71.70;;;27.20;38.65;97258.72;5035738;27;124303;-88
2023/09/21 10:45:10;;;;;;;;;;;26.70;71.30;;;27.28;38.30;97254.34;5021871;27;124487;-89
2023/09/21 10:47:36;;;;;;;;;;;26.80;70.70;;;27.36;37.25;97256.94;5038138;27;109534;-89
2023/09/21 10:50:10;;;;;;;;;;;26.80;69.00;;;27.40;37.44;97251.88;5065398;27;106951;-90
2023/09/21 10:52:42;;;;;;;;;;;26.80;68.40;;;27.43;37.36;97248.13;5025111;27;124381;-88
2023/09/21 10:55:13;;;;;;;;;;;26.90;68.10;;;27.48;37.41;97250.34;5036731;27;123391;-88
2023/09/21 10:57:44;;;;;;;;;;;27.00;68.30;;;27.56;37.08;97239.53;5034882;27;109555;-86
2023/09/21 11:00:44;;;;;;;;;;;27.10;68.70;;;27.66;37.11;97239.09;5076655;27;108950;-87
2023/09/21 11:03:04;;;;;;;;;;;27.20;68.10;;;27.74;36.93;97231.09;5031624;27;123935;-86
2023/09/21 11:05:30;;;;;;;;;;;27.30;67.90;;;27.87;37.16;97236.72;5045917;27;124440;-84
2023/09/21 11:07:56;;;;;;;;;;;27.30;67.60;;;27.93;36.85;97237.69;5036866;27;109652;-89
2023/09/21 11:10:45;;;;;;;;;;;26.30;66.30;;;27.97;36.72;97236.28;5032292;27;108419;-91
2023/09/21 11:13:11;;;;;;;;;;;27.50;67.10;;;28.02;36.84;97226.34;4966693;28;123406;-89
2023/09/21 11:15:40;;;;;;;;;;;27.50;67.50;;;28.08;36.44;97220.84;4966493;28;124037;-88
2023/09/21 11:18:06;;;;;;;;;;;27.60;66.40;;;28.15;36.25;97212.81;4959108;28;109603;-89